sensor_id;sensor_type;location;lat;lon;timestamp;P1;durP1;ratioP1;P2;durP2;ratioP2
12675;SDS011;63820;65.654;21.944;2023-02-01T00:00:50;0.97;;;0.70;;
12675;SDS011;63820;65.654;21.944;2023-02-01T00:03:34;1.57;;;0.60;;
12675;SDS011;63820;65.654;21.944;2023-02-01T00:06:18;0.93;;;0.60;;
12675;SDS011;63820;65.654;21.944;2023-02-01T00:09:03;0.73;;;0.70;;
12675;SDS011;63820;65.654;21.944;2023-02-01T00:11:47;0.53;;;0.53;;
12675;SDS011;63820;65.654;21.944;2023-02-01T00:14:31;1.23;;;0.80;;
12675;SDS011;63820;65.654;21.944;2023-02-01T00:17:21;0.63;;;0.57;;
12675;SDS011;63820;65.654;21.944;2023-02-01T00:20:06;0.50;;;0.50;;
12675;SDS011;63820;65.654;21.944;2023-02-01T00:22:51;0.70;;;0.60;;
12675;SDS011;63820;65.654;21.944;2023-02-01T00:25:35;0.93;;;0.60;;
12675;SDS011;63820;65.654;21.944;2023-02-01T00:28:19;1.37;;;0.60;;
12675;SDS011;63820;65.654;21.944;2023-02-01T00:31:03;0.70;;;0.50;;
12675;SDS011;63820;65.654;21.944;2023-02-01T00:33:48;0.83;;;0.67;;
12675;SDS011;63820;65.654;21.944;2023-02-01T00:36:33;0.83;;;0.60;;
12675;SDS011;63820;65.654;21.944;2023-02-01T00:39:17;1.03;;;0.60;;
12675;SDS011;63820;65.654;21.944;2023-02-01T00:42:02;0.90;;;0.53;;
12675;SDS011;63820;65.654;21.944;2023-02-01T00:44:47;0.77;;;0.77;;
12675;SDS011;63820;65.654;21.944;2023-02-01T00:47:31;0.87;;;0.80;;
12675;SDS011;63820;65.654;21.944;2023-02-01T00:50:15;1.00;;;0.73;;
12675;SDS011;63820;65.654;21.944;2023-02-01T00:52:59;1.43;;;1.00;;
12675;SDS011;63820;65.654;21.944;2023-02-01T00:55:47;1.27;;;0.80;;
12675;SDS011;63820;65.654;21.944;2023-02-01T00:58:32;1.10;;;0.80;;
12675;SDS011;63820;65.654;21.944;2023-02-01T01:01:21;1.30;;;0.87;;
12675;SDS011;63820;65.654;21.944;2023-02-01T01:04:07;1.57;;;0.80;;
12675;SDS011;63820;65.654;21.944;2023-02-01T01:06:51;1.00;;;0.90;;
12675;SDS011;63820;65.654;21.944;2023-02-01T01:09:35;1.10;;;1.00;;
12675;SDS011;63820;65.654;21.944;2023-02-01T01:12:19;0.97;;;0.57;;
12675;SDS011;63820;65.654;21.944;2023-02-01T01:15:03;1.13;;;0.70;;
12675;SDS011;63820;65.654;21.944;2023-02-01T01:17:48;1.00;;;0.70;;
12675;SDS011;63820;65.654;21.944;2023-02-01T01:20:33;0.70;;;0.60;;
12675;SDS011;63820;65.654;21.944;2023-02-01T01:23:19;0.90;;;0.60;;
12675;SDS011;63820;65.654;21.944;2023-02-01T01:26:07;1.10;;;0.80;;
12675;SDS011;63820;65.654;21.944;2023-02-01T01:28:54;0.73;;;0.60;;
12675;SDS011;63820;65.654;21.944;2023-02-01T01:31:39;0.63;;;0.63;;
12675;SDS011;63820;65.654;21.944;2023-02-01T01:34:23;2.10;;;0.67;;
12675;SDS011;63820;65.654;21.944;2023-02-01T01:37:07;0.87;;;0.60;;
12675;SDS011;63820;65.654;21.944;2023-02-01T01:39:52;1.17;;;0.53;;
12675;SDS011;63820;65.654;21.944;2023-02-01T01:42:37;0.83;;;0.60;;
12675;SDS011;63820;65.654;21.944;2023-02-01T01:48:25;1.67;;;0.70;;
12675;SDS011;63820;65.654;21.944;2023-02-01T01:51:12;0.50;;;0.50;;
12675;SDS011;63820;65.654;21.944;2023-02-01T01:54:00;0.57;;;0.50;;
12675;SDS011;63820;65.654;21.944;2023-02-01T01:57:08;1.07;;;0.50;;
12675;SDS011;63820;65.654;21.944;2023-02-01T02:00:19;0.70;;;0.70;;
12675;SDS011;63820;65.654;21.944;2023-02-01T02:03:07;0.73;;;0.60;;
12675;SDS011;63820;65.654;21.944;2023-02-01T02:05:57;0.47;;;0.40;;
12675;SDS011;63820;65.654;21.944;2023-02-01T02:08:44;1.40;;;0.50;;
12675;SDS011;63820;65.654;21.944;2023-02-01T02:11:28;0.57;;;0.43;;
12675;SDS011;63820;65.654;21.944;2023-02-01T02:14:13;0.40;;;0.40;;
12675;SDS011;63820;65.654;21.944;2023-02-01T02:17:23;2.27;;;0.77;;
12675;SDS011;63820;65.654;21.944;2023-02-01T02:26:14;0.60;;;0.60;;
12675;SDS011;63820;65.654;21.944;2023-02-01T02:35:50;0.63;;;0.50;;
12675;SDS011;63820;65.654;21.944;2023-02-01T02:45:34;0.53;;;0.50;;
12675;SDS011;63820;65.654;21.944;2023-02-01T02:48:48;0.90;;;0.60;;
12675;SDS011;63820;65.654;21.944;2023-02-01T02:52:16;0.50;;;0.50;;
12675;SDS011;63820;65.654;21.944;2023-02-01T02:55:21;0.67;;;0.60;;
12675;SDS011;63820;65.654;21.944;2023-02-01T02:58:06;0.50;;;0.50;;
12675;SDS011;63820;65.654;21.944;2023-02-01T03:01:12;0.47;;;0.43;;
12675;SDS011;63820;65.654;21.944;2023-02-01T03:04:15;1.13;;;0.60;;
12675;SDS011;63820;65.654;21.944;2023-02-01T03:07:14;0.40;;;0.40;;
12675;SDS011;63820;65.654;21.944;2023-02-01T03:16:19;1.60;;;0.60;;
12675;SDS011;63820;65.654;21.944;2023-02-01T03:19:19;1.00;;;0.50;;
12675;SDS011;63820;65.654;21.944;2023-02-01T03:22:09;0.97;;;0.50;;
12675;SDS011;63820;65.654;21.944;2023-02-01T03:25:02;0.57;;;0.50;;
12675;SDS011;63820;65.654;21.944;2023-02-01T03:27:57;0.50;;;0.43;;
12675;SDS011;63820;65.654;21.944;2023-02-01T03:30:48;0.37;;;0.30;;
12675;SDS011;63820;65.654;21.944;2023-02-01T03:33:33;0.40;;;0.40;;
12675;SDS011;63820;65.654;21.944;2023-02-01T03:41:58;0.53;;;0.40;;
12675;SDS011;63820;65.654;21.944;2023-02-01T03:47:52;1.00;;;0.60;;
12675;SDS011;63820;65.654;21.944;2023-02-01T03:50:43;0.93;;;0.50;;
12675;SDS011;63820;65.654;21.944;2023-02-01T03:53:32;0.70;;;0.50;;
12675;SDS011;63820;65.654;21.944;2023-02-01T03:56:20;1.33;;;0.50;;
12675;SDS011;63820;65.654;21.944;2023-02-01T03:59:06;0.40;;;0.30;;
12675;SDS011;63820;65.654;21.944;2023-02-01T04:01:51;0.40;;;0.40;;
12675;SDS011;63820;65.654;21.944;2023-02-01T04:04:36;0.40;;;0.40;;
12675;SDS011;63820;65.654;21.944;2023-02-01T04:07:21;0.30;;;0.30;;
12675;SDS011;63820;65.654;21.944;2023-02-01T04:10:05;0.93;;;0.40;;
12675;SDS011;63820;65.654;21.944;2023-02-01T04:12:49;0.30;;;0.30;;
12675;SDS011;63820;65.654;21.944;2023-02-01T04:15:34;0.30;;;0.30;;
12675;SDS011;63820;65.654;21.944;2023-02-01T04:18:18;1.20;;;0.47;;
12675;SDS011;63820;65.654;21.944;2023-02-01T04:21:02;0.40;;;0.40;;
12675;SDS011;63820;65.654;21.944;2023-02-01T04:23:46;0.40;;;0.40;;
12675;SDS011;63820;65.654;21.944;2023-02-01T04:26:30;0.40;;;0.30;;
12675;SDS011;63820;65.654;21.944;2023-02-01T04:29:14;0.30;;;0.30;;
12675;SDS011;63820;65.654;21.944;2023-02-01T04:31:58;0.57;;;0.57;;
12675;SDS011;63820;65.654;21.944;2023-02-01T04:34:42;0.80;;;0.50;;
12675;SDS011;63820;65.654;21.944;2023-02-01T04:37:26;0.70;;;0.30;;
12675;SDS011;63820;65.654;21.944;2023-02-01T04:40:11;0.60;;;0.50;;
12675;SDS011;63820;65.654;21.944;2023-02-01T04:42:56;0.43;;;0.30;;
12675;SDS011;63820;65.654;21.944;2023-02-01T04:45:40;0.30;;;0.30;;
12675;SDS011;63820;65.654;21.944;2023-02-01T04:48:24;0.47;;;0.47;;
12675;SDS011;63820;65.654;21.944;2023-02-01T04:51:08;0.43;;;0.30;;
12675;SDS011;63820;65.654;21.944;2023-02-01T04:53:53;0.30;;;0.30;;
12675;SDS011;63820;65.654;21.944;2023-02-01T04:56:39;0.50;;;0.30;;
12675;SDS011;63820;65.654;21.944;2023-02-01T04:59:23;0.30;;;0.30;;
12675;SDS011;63820;65.654;21.944;2023-02-01T05:02:08;0.23;;;0.23;;
12675;SDS011;63820;65.654;21.944;2023-02-01T05:04:52;0.40;;;0.40;;
12675;SDS011;63820;65.654;21.944;2023-02-01T05:07:37;0.43;;;0.30;;
12675;SDS011;63820;65.654;21.944;2023-02-01T05:10:21;1.30;;;0.20;;
12675;SDS011;63820;65.654;21.944;2023-02-01T05:13:07;0.30;;;0.30;;
12675;SDS011;63820;65.654;21.944;2023-02-01T05:16:11;0.50;;;0.50;;
12675;SDS011;63820;65.654;21.944;2023-02-01T05:18:55;0.40;;;0.40;;
12675;SDS011;63820;65.654;21.944;2023-02-01T05:21:39;0.40;;;0.40;;
12675;SDS011;63820;65.654;21.944;2023-02-01T05:24:23;0.30;;;0.30;;
12675;SDS011;63820;65.654;21.944;2023-02-01T05:27:07;0.30;;;0.30;;
12675;SDS011;63820;65.654;21.944;2023-02-01T05:29:52;0.30;;;0.30;;
12675;SDS011;63820;65.654;21.944;2023-02-01T05:32:35;0.30;;;0.30;;
12675;SDS011;63820;65.654;21.944;2023-02-01T05:35:20;0.40;;;0.40;;
12675;SDS011;63820;65.654;21.944;2023-02-01T05:38:04;0.40;;;0.40;;
12675;SDS011;63820;65.654;21.944;2023-02-01T05:40:48;0.27;;;0.27;;
12675;SDS011;63820;65.654;21.944;2023-02-01T05:43:33;0.63;;;0.50;;
12675;SDS011;63820;65.654;21.944;2023-02-01T05:46:17;0.70;;;0.50;;
12675;SDS011;63820;65.654;21.944;2023-02-01T05:49:01;1.10;;;0.40;;
12675;SDS011;63820;65.654;21.944;2023-02-01T05:51:45;0.60;;;0.50;;
12675;SDS011;63820;65.654;21.944;2023-02-01T05:54:30;0.63;;;0.50;;
12675;SDS011;63820;65.654;21.944;2023-02-01T05:57:14;0.70;;;0.40;;
12675;SDS011;63820;65.654;21.944;2023-02-01T05:59:59;0.57;;;0.50;;
12675;SDS011;63820;65.654;21.944;2023-02-01T06:02:44;1.33;;;0.80;;
12675;SDS011;63820;65.654;21.944;2023-02-01T06:05:28;1.97;;;1.70;;
12675;SDS011;63820;65.654;21.944;2023-02-01T06:08:12;2.50;;;1.50;;
12675;SDS011;63820;65.654;21.944;2023-02-01T06:11:00;1.33;;;0.90;;
12675;SDS011;63820;65.654;21.944;2023-02-01T06:13:46;0.50;;;0.50;;
12675;SDS011;63820;65.654;21.944;2023-02-01T06:16:30;0.83;;;0.60;;
12675;SDS011;63820;65.654;21.944;2023-02-01T06:19:15;0.40;;;0.40;;
12675;SDS011;63820;65.654;21.944;2023-02-01T06:21:59;2.03;;;0.77;;
12675;SDS011;63820;65.654;21.944;2023-02-01T06:24:43;1.30;;;0.80;;
12675;SDS011;63820;65.654;21.944;2023-02-01T06:27:27;1.60;;;0.73;;
12675;SDS011;63820;65.654;21.944;2023-02-01T06:30:12;0.70;;;0.60;;
12675;SDS011;63820;65.654;21.944;2023-02-01T06:32:59;1.03;;;0.80;;
12675;SDS011;63820;65.654;21.944;2023-02-01T06:35:43;1.17;;;0.90;;
12675;SDS011;63820;65.654;21.944;2023-02-01T06:38:27;1.80;;;1.07;;
12675;SDS011;63820;65.654;21.944;2023-02-01T06:41:11;2.13;;;1.03;;
12675;SDS011;63820;65.654;21.944;2023-02-01T06:43:56;1.50;;;1.10;;
12675;SDS011;63820;65.654;21.944;2023-02-01T06:46:40;1.70;;;1.20;;
12675;SDS011;63820;65.654;21.944;2023-02-01T06:49:24;1.60;;;1.20;;
12675;SDS011;63820;65.654;21.944;2023-02-01T06:52:09;1.17;;;0.90;;
12675;SDS011;63820;65.654;21.944;2023-02-01T06:54:53;1.13;;;0.87;;
12675;SDS011;63820;65.654;21.944;2023-02-01T06:57:37;1.67;;;1.20;;
12675;SDS011;63820;65.654;21.944;2023-02-01T07:00:22;0.73;;;0.73;;
12675;SDS011;63820;65.654;21.944;2023-02-01T07:03:06;1.23;;;0.80;;
12675;SDS011;63820;65.654;21.944;2023-02-01T07:05:53;1.83;;;1.03;;
12675;SDS011;63820;65.654;21.944;2023-02-01T07:08:38;0.97;;;0.50;;
12675;SDS011;63820;65.654;21.944;2023-02-01T07:11:22;0.30;;;0.30;;
12675;SDS011;63820;65.654;21.944;2023-02-01T07:14:07;0.83;;;0.57;;
12675;SDS011;63820;65.654;21.944;2023-02-01T07:16:51;0.40;;;0.40;;
12675;SDS011;63820;65.654;21.944;2023-02-01T07:19:36;0.40;;;0.40;;
12675;SDS011;63820;65.654;21.944;2023-02-01T07:22:19;0.53;;;0.50;;
12675;SDS011;63820;65.654;21.944;2023-02-01T07:25:04;0.57;;;0.30;;
12675;SDS011;63820;65.654;21.944;2023-02-01T07:27:49;0.80;;;0.50;;
12675;SDS011;63820;65.654;21.944;2023-02-01T07:30:33;0.30;;;0.30;;
12675;SDS011;63820;65.654;21.944;2023-02-01T07:33:18;0.40;;;0.40;;
12675;SDS011;63820;65.654;21.944;2023-02-01T07:36:06;2.27;;;0.40;;
12675;SDS011;63820;65.654;21.944;2023-02-01T07:38:53;0.30;;;0.30;;
12675;SDS011;63820;65.654;21.944;2023-02-01T07:41:38;1.93;;;0.43;;
12675;SDS011;63820;65.654;21.944;2023-02-01T07:44:22;0.47;;;0.40;;
12675;SDS011;63820;65.654;21.944;2023-02-01T07:47:06;0.50;;;0.50;;
12675;SDS011;63820;65.654;21.944;2023-02-01T07:49:50;0.70;;;0.60;;
12675;SDS011;63820;65.654;21.944;2023-02-01T07:52:35;1.73;;;0.50;;
12675;SDS011;63820;65.654;21.944;2023-02-01T07:55:20;0.93;;;0.70;;
12675;SDS011;63820;65.654;21.944;2023-02-01T07:58:05;0.80;;;0.40;;
12675;SDS011;63820;65.654;21.944;2023-02-01T08:00:49;0.53;;;0.40;;
12675;SDS011;63820;65.654;21.944;2023-02-01T08:06:38;0.40;;;0.40;;
12675;SDS011;63820;65.654;21.944;2023-02-01T08:09:24;0.70;;;0.40;;
12675;SDS011;63820;65.654;21.944;2023-02-01T08:12:09;0.40;;;0.40;;
12675;SDS011;63820;65.654;21.944;2023-02-01T08:14:54;0.60;;;0.40;;
12675;SDS011;63820;65.654;21.944;2023-02-01T08:17:39;0.40;;;0.40;;
12675;SDS011;63820;65.654;21.944;2023-02-01T08:20:24;0.30;;;0.30;;
12675;SDS011;63820;65.654;21.944;2023-02-01T08:23:09;0.40;;;0.40;;
12675;SDS011;63820;65.654;21.944;2023-02-01T08:25:53;0.80;;;0.50;;
12675;SDS011;63820;65.654;21.944;2023-02-01T08:28:38;0.57;;;0.50;;
12675;SDS011;63820;65.654;21.944;2023-02-01T08:31:24;0.60;;;0.60;;
12675;SDS011;63820;65.654;21.944;2023-02-01T08:34:09;0.60;;;0.40;;
12675;SDS011;63820;65.654;21.944;2023-02-01T08:36:55;0.63;;;0.47;;
12675;SDS011;63820;65.654;21.944;2023-02-01T08:39:42;1.47;;;0.57;;
12675;SDS011;63820;65.654;21.944;2023-02-01T08:42:30;0.70;;;0.50;;
12675;SDS011;63820;65.654;21.944;2023-02-01T08:45:33;0.30;;;0.30;;
12675;SDS011;63820;65.654;21.944;2023-02-01T08:48:17;0.60;;;0.40;;
12675;SDS011;63820;65.654;21.944;2023-02-01T08:51:05;0.60;;;0.50;;
12675;SDS011;63820;65.654;21.944;2023-02-01T08:53:50;0.40;;;0.40;;
12675;SDS011;63820;65.654;21.944;2023-02-01T08:56:35;0.70;;;0.37;;
12675;SDS011;63820;65.654;21.944;2023-02-01T08:59:19;1.40;;;0.60;;
12675;SDS011;63820;65.654;21.944;2023-02-01T09:02:04;0.50;;;0.50;;
12675;SDS011;63820;65.654;21.944;2023-02-01T09:04:49;0.80;;;0.40;;
12675;SDS011;63820;65.654;21.944;2023-02-01T09:07:34;1.10;;;0.53;;
12675;SDS011;63820;65.654;21.944;2023-02-01T09:10:18;0.70;;;0.57;;
12675;SDS011;63820;65.654;21.944;2023-02-01T09:13:03;0.50;;;0.50;;
12675;SDS011;63820;65.654;21.944;2023-02-01T09:15:50;0.60;;;0.57;;
12675;SDS011;63820;65.654;21.944;2023-02-01T09:18:34;0.50;;;0.50;;
12675;SDS011;63820;65.654;21.944;2023-02-01T09:21:19;1.60;;;0.60;;
12675;SDS011;63820;65.654;21.944;2023-02-01T09:24:03;0.50;;;0.50;;
12675;SDS011;63820;65.654;21.944;2023-02-01T09:26:47;0.90;;;0.60;;
12675;SDS011;63820;65.654;21.944;2023-02-01T09:29:32;0.40;;;0.40;;
12675;SDS011;63820;65.654;21.944;2023-02-01T09:32:16;0.93;;;0.50;;
12675;SDS011;63820;65.654;21.944;2023-02-01T09:35:00;0.67;;;0.47;;
12675;SDS011;63820;65.654;21.944;2023-02-01T09:37:43;0.40;;;0.40;;
12675;SDS011;63820;65.654;21.944;2023-02-01T09:40:27;1.73;;;0.67;;
12675;SDS011;63820;65.654;21.944;2023-02-01T09:43:21;0.43;;;0.43;;
12675;SDS011;63820;65.654;21.944;2023-02-01T09:46:31;0.40;;;0.40;;
12675;SDS011;63820;65.654;21.944;2023-02-01T09:49:18;0.87;;;0.53;;
12675;SDS011;63820;65.654;21.944;2023-02-01T09:52:10;1.17;;;0.90;;
12675;SDS011;63820;65.654;21.944;2023-02-01T09:54:58;0.87;;;0.60;;
12675;SDS011;63820;65.654;21.944;2023-02-01T09:57:58;1.53;;;0.60;;
12675;SDS011;63820;65.654;21.944;2023-02-01T10:01:05;0.73;;;0.70;;
12675;SDS011;63820;65.654;21.944;2023-02-01T10:04:10;0.43;;;0.43;;
12675;SDS011;63820;65.654;21.944;2023-02-01T10:07:02;1.07;;;0.70;;
12675;SDS011;63820;65.654;21.944;2023-02-01T10:13:07;0.83;;;0.70;;
12675;SDS011;63820;65.654;21.944;2023-02-01T10:25:56;0.50;;;0.50;;
12675;SDS011;63820;65.654;21.944;2023-02-01T10:29:16;0.77;;;0.50;;
12675;SDS011;63820;65.654;21.944;2023-02-01T10:32:03;0.80;;;0.67;;
12675;SDS011;63820;65.654;21.944;2023-02-01T10:34:59;2.13;;;1.10;;
12675;SDS011;63820;65.654;21.944;2023-02-01T10:37:53;1.37;;;0.90;;
12675;SDS011;63820;65.654;21.944;2023-02-01T10:40:39;0.93;;;0.70;;
12675;SDS011;63820;65.654;21.944;2023-02-01T10:43:24;1.80;;;1.20;;
12675;SDS011;63820;65.654;21.944;2023-02-01T10:46:09;1.63;;;1.07;;
12675;SDS011;63820;65.654;21.944;2023-02-01T10:48:54;1.90;;;1.10;;
12675;SDS011;63820;65.654;21.944;2023-02-01T10:54:46;2.67;;;1.40;;
12675;SDS011;63820;65.654;21.944;2023-02-01T10:57:30;3.00;;;1.23;;
12675;SDS011;63820;65.654;21.944;2023-02-01T11:00:19;2.57;;;1.70;;
12675;SDS011;63820;65.654;21.944;2023-02-01T11:03:19;3.47;;;1.43;;
12675;SDS011;63820;65.654;21.944;2023-02-01T11:06:48;2.53;;;1.73;;
12675;SDS011;63820;65.654;21.944;2023-02-01T11:09:29;0.60;;;0.60;;
12675;SDS011;63820;65.654;21.944;2023-02-01T11:12:22;1.27;;;0.70;;
12675;SDS011;63820;65.654;21.944;2023-02-01T11:15:27;0.40;;;0.40;;
12675;SDS011;63820;65.654;21.944;2023-02-01T11:18:16;0.60;;;0.40;;
12675;SDS011;63820;65.654;21.944;2023-02-01T11:21:04;0.40;;;0.40;;
12675;SDS011;63820;65.654;21.944;2023-02-01T11:23:49;0.57;;;0.50;;
12675;SDS011;63820;65.654;21.944;2023-02-01T11:26:34;0.50;;;0.30;;
12675;SDS011;63820;65.654;21.944;2023-02-01T11:29:25;2.10;;;0.40;;
12675;SDS011;63820;65.654;21.944;2023-02-01T11:32:13;0.40;;;0.40;;
12675;SDS011;63820;65.654;21.944;2023-02-01T11:35:02;0.20;;;0.20;;
12675;SDS011;63820;65.654;21.944;2023-02-01T11:37:54;0.53;;;0.40;;
12675;SDS011;63820;65.654;21.944;2023-02-01T11:40:42;0.40;;;0.40;;
12675;SDS011;63820;65.654;21.944;2023-02-01T11:43:27;0.30;;;0.30;;
12675;SDS011;63820;65.654;21.944;2023-02-01T11:46:16;0.43;;;0.33;;
12675;SDS011;63820;65.654;21.944;2023-02-01T11:49:21;0.30;;;0.30;;
12675;SDS011;63820;65.654;21.944;2023-02-01T11:52:14;1.17;;;0.40;;
12675;SDS011;63820;65.654;21.944;2023-02-01T12:10:28;0.93;;;0.30;;
12675;SDS011;63820;65.654;21.944;2023-02-01T12:50:42;0.40;;;0.40;;
12675;SDS011;63820;65.654;21.944;2023-02-01T12:53:45;0.33;;;0.30;;
12675;SDS011;63820;65.654;21.944;2023-02-01T12:59:31;0.70;;;0.40;;
12675;SDS011;63820;65.654;21.944;2023-02-01T13:02:25;0.87;;;0.33;;
12675;SDS011;63820;65.654;21.944;2023-02-01T13:05:22;0.90;;;0.40;;
12675;SDS011;63820;65.654;21.944;2023-02-01T13:08:28;0.30;;;0.30;;
12675;SDS011;63820;65.654;21.944;2023-02-01T13:11:31;1.13;;;0.43;;
12675;SDS011;63820;65.654;21.944;2023-02-01T13:17:04;0.40;;;0.30;;
12675;SDS011;63820;65.654;21.944;2023-02-01T13:22:40;0.80;;;0.40;;
12675;SDS011;63820;65.654;21.944;2023-02-01T13:28:41;1.00;;;0.40;;
12675;SDS011;63820;65.654;21.944;2023-02-01T13:34:49;1.13;;;0.50;;
12675;SDS011;63820;65.654;21.944;2023-02-01T13:43:47;0.30;;;0.30;;
12675;SDS011;63820;65.654;21.944;2023-02-01T13:46:41;0.47;;;0.47;;
12675;SDS011;63820;65.654;21.944;2023-02-01T13:49:31;0.40;;;0.40;;
12675;SDS011;63820;65.654;21.944;2023-02-01T13:52:34;0.77;;;0.40;;
12675;SDS011;63820;65.654;21.944;2023-02-01T13:55:24;0.63;;;0.47;;
12675;SDS011;63820;65.654;21.944;2023-02-01T13:58:15;0.50;;;0.40;;
12675;SDS011;63820;65.654;21.944;2023-02-01T14:04:06;1.50;;;0.30;;
12675;SDS011;63820;65.654;21.944;2023-02-01T14:07:28;0.37;;;0.37;;
12675;SDS011;63820;65.654;21.944;2023-02-01T14:16:23;0.40;;;0.40;;
12675;SDS011;63820;65.654;21.944;2023-02-01T14:19:19;2.20;;;0.60;;
12675;SDS011;63820;65.654;21.944;2023-02-01T14:24:58;0.40;;;0.40;;
12675;SDS011;63820;65.654;21.944;2023-02-01T14:27:42;0.40;;;0.40;;
12675;SDS011;63820;65.654;21.944;2023-02-01T14:30:26;0.30;;;0.30;;
12675;SDS011;63820;65.654;21.944;2023-02-01T14:33:12;1.83;;;0.50;;
12675;SDS011;63820;65.654;21.944;2023-02-01T14:36:11;0.30;;;0.30;;
12675;SDS011;63820;65.654;21.944;2023-02-01T14:38:58;0.40;;;0.40;;
12675;SDS011;63820;65.654;21.944;2023-02-01T14:41:42;0.40;;;0.40;;
12675;SDS011;63820;65.654;21.944;2023-02-01T14:44:31;0.47;;;0.40;;
12675;SDS011;63820;65.654;21.944;2023-02-01T14:58:58;1.90;;;0.67;;
12675;SDS011;63820;65.654;21.944;2023-02-01T15:01:50;0.53;;;0.53;;
12675;SDS011;63820;65.654;21.944;2023-02-01T15:04:41;0.90;;;0.60;;
12675;SDS011;63820;65.654;21.944;2023-02-01T15:07:27;0.63;;;0.60;;
12675;SDS011;63820;65.654;21.944;2023-02-01T15:10:12;1.40;;;0.60;;
12675;SDS011;63820;65.654;21.944;2023-02-01T15:12:57;2.20;;;0.53;;
12675;SDS011;63820;65.654;21.944;2023-02-01T15:15:41;1.63;;;0.50;;
12675;SDS011;63820;65.654;21.944;2023-02-01T15:18:25;2.93;;;0.60;;
12675;SDS011;63820;65.654;21.944;2023-02-01T15:21:20;0.90;;;0.50;;
12675;SDS011;63820;65.654;21.944;2023-02-01T15:24:19;0.43;;;0.43;;
12675;SDS011;63820;65.654;21.944;2023-02-01T15:27:13;2.47;;;0.60;;
12675;SDS011;63820;65.654;21.944;2023-02-01T15:30:07;0.50;;;0.50;;
12675;SDS011;63820;65.654;21.944;2023-02-01T15:33:07;0.57;;;0.53;;
12675;SDS011;63820;65.654;21.944;2023-02-01T15:38:50;0.70;;;0.70;;
12675;SDS011;63820;65.654;21.944;2023-02-01T15:41:58;0.73;;;0.53;;
12675;SDS011;63820;65.654;21.944;2023-02-01T15:44:47;0.40;;;0.40;;
12675;SDS011;63820;65.654;21.944;2023-02-01T15:47:31;1.03;;;0.53;;
12675;SDS011;63820;65.654;21.944;2023-02-01T15:50:16;0.50;;;0.50;;
12675;SDS011;63820;65.654;21.944;2023-02-01T15:53:02;0.40;;;0.40;;
12675;SDS011;63820;65.654;21.944;2023-02-01T15:55:51;4.57;;;0.50;;
12675;SDS011;63820;65.654;21.944;2023-02-01T15:58:40;0.40;;;0.40;;
12675;SDS011;63820;65.654;21.944;2023-02-01T16:01:26;0.53;;;0.50;;
12675;SDS011;63820;65.654;21.944;2023-02-01T16:04:18;0.60;;;0.60;;
12675;SDS011;63820;65.654;21.944;2023-02-01T16:07:04;0.57;;;0.47;;
12675;SDS011;63820;65.654;21.944;2023-02-01T16:11:20;0.43;;;0.43;;
12675;SDS011;63820;65.654;21.944;2023-02-01T16:13:24;0.40;;;0.40;;
12675;SDS011;63820;65.654;21.944;2023-02-01T16:16:09;1.87;;;0.67;;
12675;SDS011;63820;65.654;21.944;2023-02-01T16:18:57;2.10;;;0.50;;
12675;SDS011;63820;65.654;21.944;2023-02-01T16:21:41;1.10;;;0.50;;
12675;SDS011;63820;65.654;21.944;2023-02-01T16:24:25;1.30;;;0.50;;
12675;SDS011;63820;65.654;21.944;2023-02-01T16:27:10;0.67;;;0.57;;
12675;SDS011;63820;65.654;21.944;2023-02-01T16:29:54;0.90;;;0.47;;
12675;SDS011;63820;65.654;21.944;2023-02-01T16:32:40;0.60;;;0.50;;
12675;SDS011;63820;65.654;21.944;2023-02-01T16:35:27;1.40;;;0.77;;
12675;SDS011;63820;65.654;21.944;2023-02-01T16:38:16;1.37;;;0.70;;
12675;SDS011;63820;65.654;21.944;2023-02-01T16:41:03;1.40;;;0.60;;
12675;SDS011;63820;65.654;21.944;2023-02-01T16:43:49;0.90;;;0.70;;
12675;SDS011;63820;65.654;21.944;2023-02-01T16:46:35;0.70;;;0.70;;
12675;SDS011;63820;65.654;21.944;2023-02-01T16:49:25;0.60;;;0.57;;
12675;SDS011;63820;65.654;21.944;2023-02-01T16:52:11;1.10;;;0.60;;
12675;SDS011;63820;65.654;21.944;2023-02-01T16:55:04;1.60;;;0.80;;
12675;SDS011;63820;65.654;21.944;2023-02-01T16:57:55;1.10;;;0.80;;
12675;SDS011;63820;65.654;21.944;2023-02-01T17:00:39;2.07;;;0.70;;
12675;SDS011;63820;65.654;21.944;2023-02-01T17:03:24;1.30;;;0.97;;
12675;SDS011;63820;65.654;21.944;2023-02-01T17:06:09;1.00;;;0.80;;
12675;SDS011;63820;65.654;21.944;2023-02-01T17:08:55;1.93;;;0.87;;
12675;SDS011;63820;65.654;21.944;2023-02-01T17:11:44;2.57;;;0.90;;
12675;SDS011;63820;65.654;21.944;2023-02-01T17:14:29;1.73;;;1.00;;
12675;SDS011;63820;65.654;21.944;2023-02-01T17:17:15;1.57;;;1.03;;
12675;SDS011;63820;65.654;21.944;2023-02-01T17:20:00;1.90;;;1.10;;
12675;SDS011;63820;65.654;21.944;2023-02-01T17:22:44;2.47;;;1.40;;
12675;SDS011;63820;65.654;21.944;2023-02-01T17:25:29;4.70;;;1.30;;
12675;SDS011;63820;65.654;21.944;2023-02-01T17:28:14;1.87;;;1.30;;
12675;SDS011;63820;65.654;21.944;2023-02-01T17:30:58;2.80;;;1.27;;
12675;SDS011;63820;65.654;21.944;2023-02-01T17:33:43;2.60;;;1.07;;
12675;SDS011;63820;65.654;21.944;2023-02-01T17:36:27;5.03;;;1.30;;
12675;SDS011;63820;65.654;21.944;2023-02-01T17:39:11;2.73;;;1.40;;
12675;SDS011;63820;65.654;21.944;2023-02-01T17:42:20;3.50;;;1.40;;
12675;SDS011;63820;65.654;21.944;2023-02-01T17:48:21;2.13;;;1.20;;
12675;SDS011;63820;65.654;21.944;2023-02-01T17:51:13;2.50;;;1.40;;
12675;SDS011;63820;65.654;21.944;2023-02-01T17:53:59;2.73;;;1.40;;
12675;SDS011;63820;65.654;21.944;2023-02-01T17:56:43;2.23;;;1.10;;
12675;SDS011;63820;65.654;21.944;2023-02-01T17:59:27;2.27;;;1.20;;
12675;SDS011;63820;65.654;21.944;2023-02-01T18:02:19;2.00;;;1.37;;
12675;SDS011;63820;65.654;21.944;2023-02-01T18:05:12;2.33;;;1.27;;
12675;SDS011;63820;65.654;21.944;2023-02-01T18:08:02;2.60;;;1.00;;
12675;SDS011;63820;65.654;21.944;2023-02-01T18:10:48;1.97;;;1.10;;
12675;SDS011;63820;65.654;21.944;2023-02-01T18:13:34;1.60;;;1.00;;
12675;SDS011;63820;65.654;21.944;2023-02-01T18:19:03;4.70;;;1.77;;
12675;SDS011;63820;65.654;21.944;2023-02-01T18:21:48;3.77;;;2.00;;
12675;SDS011;63820;65.654;21.944;2023-02-01T18:24:32;3.70;;;1.60;;
12675;SDS011;63820;65.654;21.944;2023-02-01T18:27:17;3.70;;;2.20;;
12675;SDS011;63820;65.654;21.944;2023-02-01T18:30:02;2.40;;;1.77;;
12675;SDS011;63820;65.654;21.944;2023-02-01T18:32:46;3.90;;;2.07;;
12675;SDS011;63820;65.654;21.944;2023-02-01T18:35:31;3.60;;;2.23;;
12675;SDS011;63820;65.654;21.944;2023-02-01T18:38:16;2.90;;;1.90;;
12675;SDS011;63820;65.654;21.944;2023-02-01T18:41:00;7.93;;;2.83;;
12675;SDS011;63820;65.654;21.944;2023-02-01T18:43:48;4.27;;;2.03;;
12675;SDS011;63820;65.654;21.944;2023-02-01T18:46:33;6.97;;;3.30;;
12675;SDS011;63820;65.654;21.944;2023-02-01T18:49:17;6.00;;;3.10;;
12675;SDS011;63820;65.654;21.944;2023-02-01T18:52:02;5.77;;;2.50;;
12675;SDS011;63820;65.654;21.944;2023-02-01T18:54:47;4.80;;;2.37;;
12675;SDS011;63820;65.654;21.944;2023-02-01T18:57:30;5.53;;;2.90;;
12675;SDS011;63820;65.654;21.944;2023-02-01T19:00:16;5.27;;;2.60;;
12675;SDS011;63820;65.654;21.944;2023-02-01T19:03:02;4.57;;;2.63;;
12675;SDS011;63820;65.654;21.944;2023-02-01T19:05:46;3.50;;;1.83;;
12675;SDS011;63820;65.654;21.944;2023-02-01T19:08:32;3.20;;;1.77;;
12675;SDS011;63820;65.654;21.944;2023-02-01T19:11:16;3.53;;;1.80;;
12675;SDS011;63820;65.654;21.944;2023-02-01T19:14:01;2.33;;;1.80;;
12675;SDS011;63820;65.654;21.944;2023-02-01T19:16:45;1.97;;;1.50;;
12675;SDS011;63820;65.654;21.944;2023-02-01T19:19:29;3.70;;;1.37;;